Time;durP1;ratioP1;P1;durP2;ratioP2;P2;SDS_P1;SDS_P2;PMS_P1;PMS_P2;Temp;Humidity;BMP_temperature;BMP_pressure;BME280_temperature;BME280_humidity;BME280_pressure;Samples;Min_cycle;Max_cycle;Signal;HPM_P1;HPM_P2
2023/07/22 00:01:54;;;;;;;8.90;3.20;;;;;;;-128.00;-1.00;-1.00;106878;1253;1012621;-70
2023/07/22 00:04:41;;;;;;;10.20;3.40;;;;;;;-128.00;-1.00;-1.00;106605;1253;1010148;-70
2023/07/22 00:07:30;;;;;;;7.90;3.20;;;;;;;-128.00;-1.00;-1.00;106904;1252;1010327;-69
2023/07/22 00:10:16;;;;;;;9.60;3.40;;;;;;;-128.00;-1.00;-1.00;106619;1253;1013366;-70
2023/07/22 00:13:03;;;;;;;8.80;2.90;;;;;;;-128.00;-1.00;-1.00;106921;1253;1013297;-68
2023/07/22 00:15:50;;;;;;;8.10;3.20;;;;;;;-128.00;-1.00;-1.00;106688;1253;1013571;-72
2023/07/22 00:18:36;;;;;;;8.30;3.10;;;;;;;-128.00;-1.00;-1.00;106665;1253;1009724;-69
2023/07/22 00:21:23;;;;;;;9.10;3.70;;;;;;;-128.00;-1.00;-1.00;106707;1253;1011128;-70
2023/07/22 00:24:10;;;;;;;9.10;3.00;;;;;;;-128.00;-1.00;-1.00;106606;1253;1012769;-69
2023/07/22 00:26:57;;;;;;;8.40;3.20;;;;;;;-128.00;-1.00;-1.00;106670;1253;1011756;-72
2023/07/22 00:29:43;;;;;;;9.00;3.50;;;;;;;-128.00;-1.00;-1.00;106713;1253;1012469;-69
2023/07/22 00:32:30;;;;;;;9.40;3.30;;;;;;;-128.00;-1.00;-1.00;106609;1253;1010478;-69
2023/07/22 00:35:16;;;;;;;9.00;3.20;;;;;;;-128.00;-1.00;-1.00;106603;1253;1010129;-70
2023/07/22 00:38:03;;;;;;;9.00;3.50;;;;;;;-128.00;-1.00;-1.00;106676;1253;1013428;-72
2023/07/22 00:40:50;;;;;;;7.00;3.10;;;;;;;-128.00;-1.00;-1.00;106869;1257;1012077;-70
2023/07/22 00:43:38;;;;;;;10.30;3.30;;;;;;;-128.00;-1.00;-1.00;106590;1258;1012518;-69
2023/07/22 00:46:24;;;;;;;7.10;3.10;;;;;;;-128.00;-1.00;-1.00;106574;1253;1011215;-68
2023/07/22 00:49:14;;;;;;;8.20;3.10;;;;;;;-128.00;-1.00;-1.00;106655;1253;1010999;-69
2023/07/22 00:52:02;;;;;;;9.10;3.20;;;;;;;-128.00;-1.00;-1.00;106662;1259;1013056;-71
2023/07/22 00:54:49;;;;;;;9.10;2.90;;;;;;;-128.00;-1.00;-1.00;106640;1256;1012193;-70
2023/07/22 00:57:37;;;;;;;7.50;2.70;;;;;;;-128.00;-1.00;-1.00;106626;1253;1012524;-69
2023/07/22 01:00:24;;;;;;;10.30;2.70;;;;;;;-128.00;-1.00;-1.00;106556;1256;1009886;-70
2023/07/22 01:03:16;;;;;;;8.00;2.80;;;;;;;-128.00;-1.00;-1.00;106763;1253;1011645;-69
2023/07/22 01:06:02;;;;;;;10.20;2.60;;;;;;;-128.00;-1.00;-1.00;106855;1253;1012229;-68
2023/07/22 01:08:49;;;;;;;8.90;2.80;;;;;;;-128.00;-1.00;-1.00;106849;1253;1012648;-72
2023/07/22 01:11:38;;;;;;;7.90;2.80;;;;;;;-128.00;-1.00;-1.00;106692;1253;1013447;-69
2023/07/22 01:14:42;;;;;;;7.30;2.50;;;;;;;-128.00;-1.00;-1.00;106663;1253;1009565;-69
2023/07/22 01:17:28;;;;;;;7.20;2.90;;;;;;;-128.00;-1.00;-1.00;106638;1253;1010957;-71
2023/07/22 01:20:19;;;;;;;8.00;2.60;;;;;;;-128.00;-1.00;-1.00;106592;1254;1012410;-70
2023/07/22 01:23:07;;;;;;;8.80;2.60;;;;;;;-128.00;-1.00;-1.00;106510;1254;1012696;-69
2023/07/22 01:25:53;;;;;;;6.80;2.40;;;;;;;-128.00;-1.00;-1.00;106669;1254;1012900;-69
2023/07/22 01:28:40;;;;;;;7.50;2.20;;;;;;;-128.00;-1.00;-1.00;106710;1253;1010012;-69
2023/07/22 01:31:53;;;;;;;7.30;2.20;;;;;;;-128.00;-1.00;-1.00;106652;1253;1011280;-70
2023/07/22 01:34:41;;;;;;;7.80;2.50;;;;;;;-128.00;-1.00;-1.00;106638;1254;1011854;-67
2023/07/22 01:37:28;;;;;;;7.20;2.60;;;;;;;-128.00;-1.00;-1.00;106595;1259;1013198;-69
2023/07/22 01:40:17;;;;;;;8.70;2.60;;;;;;;-128.00;-1.00;-1.00;106671;1252;1012632;-70
2023/07/22 01:43:04;;;;;;;8.40;2.80;;;;;;;-128.00;-1.00;-1.00;106823;1253;1010378;-69
2023/07/22 01:45:54;;;;;;;8.30;2.50;;;;;;;-128.00;-1.00;-1.00;106799;1254;1010722;-69
2023/07/22 01:48:40;;;;;;;7.90;2.90;;;;;;;-128.00;-1.00;-1.00;106518;1253;1012774;-68
2023/07/22 01:51:27;;;;;;;8.10;3.00;;;;;;;-128.00;-1.00;-1.00;106642;1262;1012200;-70
2023/07/22 01:54:14;;;;;;;7.90;2.70;;;;;;;-128.00;-1.00;-1.00;106618;1254;1012371;-70
2023/07/22 01:57:00;;;;;;;8.50;2.90;;;;;;;-128.00;-1.00;-1.00;106495;1253;1011133;-69
2023/07/22 01:59:46;;;;;;;7.90;3.00;;;;;;;-128.00;-1.00;-1.00;106680;1253;1010425;-71
2023/07/22 02:02:34;;;;;;;10.10;2.80;;;;;;;-128.00;-1.00;-1.00;106645;1254;1012626;-70
2023/07/22 02:05:21;;;;;;;8.30;3.10;;;;;;;-128.00;-1.00;-1.00;106593;1260;1012817;-70
2023/07/22 02:08:07;;;;;;;9.40;3.00;;;;;;;-128.00;-1.00;-1.00;106710;1257;1012996;-70
2023/07/22 02:10:53;;;;;;;8.20;2.90;;;;;;;-128.00;-1.00;-1.00;106645;1253;1010116;-68
2023/07/22 02:13:40;;;;;;;7.00;2.70;;;;;;;-128.00;-1.00;-1.00;106747;1255;1010385;-71
2023/07/22 02:16:26;;;;;;;8.80;3.10;;;;;;;-128.00;-1.00;-1.00;106856;1253;1011957;-67
2023/07/22 02:19:13;;;;;;;9.20;2.60;;;;;;;-128.00;-1.00;-1.00;106644;1253;1013373;-69
2023/07/22 02:22:00;;;;;;;11.20;3.10;;;;;;;-128.00;-1.00;-1.00;106644;1254;1012767;-70
2023/07/22 02:24:46;;;;;;;7.30;2.60;;;;;;;-128.00;-1.00;-1.00;106541;1254;1009952;-69
2023/07/22 02:27:33;;;;;;;8.10;2.80;;;;;;;-128.00;-1.00;-1.00;106656;1259;1010806;-69
2023/07/22 02:30:19;;;;;;;7.40;2.60;;;;;;;-128.00;-1.00;-1.00;106548;1254;1012626;-68
2023/07/22 02:33:06;;;;;;;6.70;2.40;;;;;;;-128.00;-1.00;-1.00;106644;1253;1013053;-69
2023/07/22 02:35:53;;;;;;;8.00;3.10;;;;;;;-128.00;-1.00;-1.00;106660;1254;1013037;-69
2023/07/22 02:38:46;;;;;;;8.10;3.00;;;;;;;-128.00;-1.00;-1.00;106509;1253;1011132;-70
2023/07/22 02:41:32;;;;;;;6.80;2.90;;;;;;;-128.00;-1.00;-1.00;106600;1253;1011487;-69
2023/07/22 02:44:19;;;;;;;6.70;2.60;;;;;;;-128.00;-1.00;-1.00;106876;1253;1012421;-69
2023/07/22 02:47:05;;;;;;;8.10;3.20;;;;;;;-128.00;-1.00;-1.00;106756;1254;1012740;-69
2023/07/22 02:49:52;;;;;;;7.50;2.70;;;;;;;-128.00;-1.00;-1.00;106811;1257;1013093;-73
2023/07/22 02:52:42;;;;;;;7.20;2.90;;;;;;;-128.00;-1.00;-1.00;106815;1254;1009468;-69
2023/07/22 02:55:28;;;;;;;8.80;3.20;;;;;;;-128.00;-1.00;-1.00;106666;1254;1010502;-69
2023/07/22 02:58:16;;;;;;;7.20;2.80;;;;;;;-128.00;-1.00;-1.00;106645;1253;1013069;-69
2023/07/22 03:01:13;;;;;;;9.10;3.30;;;;;;;-128.00;-1.00;-1.00;106516;1254;1011727;-69
2023/07/22 03:04:00;;;;;;;7.50;2.90;;;;;;;-128.00;-1.00;-1.00;106573;1253;1012367;-70
2023/07/22 03:06:46;;;;;;;8.50;2.80;;;;;;;-128.00;-1.00;-1.00;106717;1253;1009293;-69
2023/07/22 03:09:33;;;;;;;7.10;2.90;;;;;;;-128.00;-1.00;-1.00;106601;1260;1011783;-70
2023/07/22 03:12:20;;;;;;;6.40;2.80;;;;;;;-128.00;-1.00;-1.00;106718;1254;1013459;-67
2023/07/22 03:15:12;;;;;;;7.20;2.60;;;;;;;-128.00;-1.00;-1.00;106885;1254;1011847;-69
2023/07/22 03:17:59;;;;;;;7.40;2.70;;;;;;;-128.00;-1.00;-1.00;106667;1254;1013345;-68
2023/07/22 03:20:45;;;;;;;7.90;2.90;;;;;;;-128.00;-1.00;-1.00;106799;1255;1010054;-70
2023/07/22 03:23:33;;;;;;;7.80;3.10;;;;;;;-128.00;-1.00;-1.00;106691;1254;1010558;-70
2023/07/22 03:26:20;;;;;;;7.20;3.00;;;;;;;-128.00;-1.00;-1.00;106661;1260;1012521;-69
2023/07/22 03:29:07;;;;;;;7.70;2.90;;;;;;;-128.00;-1.00;-1.00;106703;1254;1012641;-70
2023/07/22 03:31:54;;;;;;;8.10;3.20;;;;;;;-128.00;-1.00;-1.00;106853;1253;1013056;-70
2023/07/22 03:34:41;;;;;;;7.00;2.20;;;;;;;-128.00;-1.00;-1.00;106882;1254;1009897;-68
2023/07/22 03:37:29;;;;;;;7.50;2.80;;;;;;;-128.00;-1.00;-1.00;106914;1253;1010423;-69
2023/07/22 03:40:22;;;;;;;9.20;3.20;;;;;;;-128.00;-1.00;-1.00;106864;1254;1012350;-69
2023/07/22 03:43:09;;;;;;;8.00;2.70;;;;;;;-128.00;-1.00;-1.00;106596;1254;1012345;-71
2023/07/22 03:45:56;;;;;;;7.80;2.80;;;;;;;-128.00;-1.00;-1.00;106446;1259;1012995;-69
2023/07/22 03:48:42;;;;;;;7.90;2.80;;;;;;;-128.00;-1.00;-1.00;106832;1254;1009016;-70
2023/07/22 03:51:29;;;;;;;7.00;2.80;;;;;;;-128.00;-1.00;-1.00;106571;1253;1011412;-69
2023/07/22 03:54:15;;;;;;;7.50;2.90;;;;;;;-128.00;-1.00;-1.00;106839;1254;1013147;-71
2023/07/22 03:57:02;;;;;;;7.40;3.10;;;;;;;-128.00;-1.00;-1.00;106734;1254;1011943;-71
2023/07/22 03:59:49;;;;;;;8.30;3.10;;;;;;;-128.00;-1.00;-1.00;106559;1254;1012912;-75
2023/07/22 04:02:35;;;;;;;7.30;2.90;;;;;;;-128.00;-1.00;-1.00;106573;1253;1010676;-70
2023/07/22 04:05:22;;;;;;;9.00;3.50;;;;;;;-128.00;-1.00;-1.00;106788;1256;1010347;-73
2023/07/22 04:08:10;;;;;;;7.90;3.40;;;;;;;-128.00;-1.00;-1.00;106607;1254;1013366;-71
2023/07/22 04:10:58;;;;;;;9.50;3.50;;;;;;;-128.00;-1.00;-1.00;106663;1253;1012229;-72
2023/07/22 04:13:45;;;;;;;8.00;2.70;;;;;;;-128.00;-1.00;-1.00;106663;1254;1012704;-72
2023/07/22 04:16:34;;;;;;;9.10;3.30;;;;;;;-128.00;-1.00;-1.00;106623;1252;1009518;-72
2023/07/22 04:19:21;;;;;;;9.00;3.00;;;;;;;-128.00;-1.00;-1.00;106491;1254;1011529;-74
2023/07/22 04:22:08;;;;;;;8.60;3.00;;;;;;;-128.00;-1.00;-1.00;106687;1254;1012693;-73
2023/07/22 04:24:55;;;;;;;8.40;3.30;;;;;;;-128.00;-1.00;-1.00;106866;1254;1012485;-72
2023/07/22 04:27:41;;;;;;;8.40;3.10;;;;;;;-128.00;-1.00;-1.00;106704;1253;1013082;-73
2023/07/22 04:30:30;;;;;;;8.30;3.10;;;;;;;-128.00;-1.00;-1.00;106798;1254;1009491;-72
2023/07/22 04:33:22;;;;;;;7.80;2.70;;;;;;;-128.00;-1.00;-1.00;106529;1254;1010420;-73
2023/07/22 04:36:09;;;;;;;7.10;2.90;;;;;;;-128.00;-1.00;-1.00;106719;1254;1012812;-75
2023/07/22 04:38:55;;;;;;;7.50;2.40;;;;;;;-128.00;-1.00;-1.00;106567;1253;1012378;-72
2023/07/22 04:41:44;;;;;;;6.90;2.40;;;;;;;-128.00;-1.00;-1.00;106689;1253;1013014;-74
2023/07/22 04:44:32;;;;;;;6.20;2.50;;;;;;;-128.00;-1.00;-1.00;106542;1254;1010777;-73
2023/07/22 04:47:18;;;;;;;6.30;2.50;;;;;;;-128.00;-1.00;-1.00;106871;1253;1011131;-74
2023/07/22 04:50:09;;;;;;;6.90;2.70;;;;;;;-128.00;-1.00;-1.00;106827;1254;1012718;-71
2023/07/22 04:52:55;;;;;;;7.80;2.70;;;;;;;-128.00;-1.00;-1.00;106603;1260;1012932;-72
2023/07/22 04:55:43;;;;;;;5.70;2.00;;;;;;;-128.00;-1.00;-1.00;106679;1253;1012369;-72
2023/07/22 04:58:30;;;;;;;6.00;2.10;;;;;;;-128.00;-1.00;-1.00;106607;1253;1009109;-73
2023/07/22 05:01:19;;;;;;;6.00;2.10;;;;;;;-128.00;-1.00;-1.00;106589;1255;1010717;-74
2023/07/22 05:04:09;;;;;;;6.50;2.10;;;;;;;-128.00;-1.00;-1.00;106563;1254;1012501;-75
2023/07/22 05:06:57;;;;;;;5.90;2.20;;;;;;;-128.00;-1.00;-1.00;106822;1254;1012450;-75
2023/07/22 05:09:45;;;;;;;6.60;2.20;;;;;;;-128.00;-1.00;-1.00;106527;1254;1012059;-75
2023/07/22 05:12:34;;;;;;;7.30;2.50;;;;;;;-128.00;-1.00;-1.00;106686;1252;1008875;-73
2023/07/22 05:15:22;;;;;;;6.20;2.10;;;;;;;-128.00;-1.00;-1.00;106558;1253;1010765;-75
2023/07/22 05:18:09;;;;;;;6.10;2.20;;;;;;;-128.00;-1.00;-1.00;106472;1254;1013084;-74
2023/07/22 05:20:56;;;;;;;6.30;2.40;;;;;;;-128.00;-1.00;-1.00;106699;1257;1012805;-72
2023/07/22 05:23:43;;;;;;;6.00;2.00;;;;;;;-128.00;-1.00;-1.00;106765;1254;1013390;-72
2023/07/22 05:26:30;;;;;;;7.30;2.20;;;;;;;-128.00;-1.00;-1.00;106692;1254;1010080;-71
2023/07/22 05:29:17;;;;;;;8.70;3.10;;;;;;;-128.00;-1.00;-1.00;106611;1257;1011368;-73
2023/07/22 05:32:04;;;;;;;5.70;2.10;;;;;;;-128.00;-1.00;-1.00;106630;1254;1012397;-71
2023/07/22 05:34:57;;;;;;;7.20;2.40;;;;;;;-128.00;-1.00;-1.00;106889;1253;1013595;-69
2023/07/22 05:37:44;;;;;;;5.90;1.80;;;;;;;-128.00;-1.00;-1.00;106745;1254;1012247;-71
2023/07/22 05:40:31;;;;;;;6.00;2.00;;;;;;;-128.00;-1.00;-1.00;106535;1254;1010298;-72
2023/07/22 05:43:23;;;;;;;5.50;1.90;;;;;;;-128.00;-1.00;-1.00;106611;1254;1010977;-74
2023/07/22 05:46:10;;;;;;;7.40;2.50;;;;;;;-128.00;-1.00;-1.00;106853;1253;1012939;-71
2023/07/22 05:48:56;;;;;;;5.80;2.20;;;;;;;-128.00;-1.00;-1.00;106502;1253;1012867;-70
2023/07/22 05:51:43;;;;;;;6.10;2.00;;;;;;;-128.00;-1.00;-1.00;106590;1254;1013074;-72
2023/07/22 05:54:29;;;;;;;7.50;2.00;;;;;;;-128.00;-1.00;-1.00;106841;1253;1010066;-74
2023/07/22 05:57:18;;;;;;;6.20;2.20;;;;;;;-128.00;-1.00;-1.00;106529;1253;1011149;-73
2023/07/22 06:00:08;;;;;;;5.90;2.10;;;;;;;-128.00;-1.00;-1.00;106768;1254;1013708;-72
2023/07/22 06:02:59;;;;;;;5.80;2.00;;;;;;;-128.00;-1.00;-1.00;106704;1254;1011711;-70
2023/07/22 06:05:47;;;;;;;6.00;2.30;;;;;;;-128.00;-1.00;-1.00;106688;1254;1012405;-71
2023/07/22 06:08:34;;;;;;;5.70;1.90;;;;;;;-128.00;-1.00;-1.00;106610;1252;1010069;-76
2023/07/22 06:11:22;;;;;;;7.30;2.40;;;;;;;-128.00;-1.00;-1.00;106578;1253;1010562;-71
2023/07/22 06:14:09;;;;;;;6.20;2.10;;;;;;;-128.00;-1.00;-1.00;106682;1253;1011965;-71
2023/07/22 06:16:55;;;;;;;6.30;2.50;;;;;;;-128.00;-1.00;-1.00;106690;1253;1012539;-72
2023/07/22 06:19:42;;;;;;;6.00;2.10;;;;;;;-128.00;-1.00;-1.00;106760;1253;1012433;-72
2023/07/22 06:22:28;;;;;;;6.20;2.30;;;;;;;-128.00;-1.00;-1.00;106553;1253;1009027;-72
2023/07/22 06:25:14;;;;;;;7.20;2.10;;;;;;;-128.00;-1.00;-1.00;106584;1253;1010281;-71
2023/07/22 06:28:01;;;;;;;7.10;2.40;;;;;;;-128.00;-1.00;-1.00;106625;1254;1013102;-71
2023/07/22 06:30:47;;;;;;;7.40;2.40;;;;;;;-128.00;-1.00;-1.00;106612;1256;1011925;-72
2023/07/22 06:33:34;;;;;;;6.20;2.30;;;;;;;-128.00;-1.00;-1.00;106551;1253;1013010;-73
2023/07/22 06:36:20;;;;;;;6.00;2.20;;;;;;;-128.00;-1.00;-1.00;106723;1254;1009493;-73
2023/07/22 06:39:07;;;;;;;7.80;2.80;;;;;;;-128.00;-1.00;-1.00;106362;1253;1011397;-71
2023/07/22 06:41:53;;;;;;;6.20;2.30;;;;;;;-128.00;-1.00;-1.00;106506;1254;1012369;-71
2023/07/22 06:44:40;;;;;;;6.30;2.40;;;;;;;-128.00;-1.00;-1.00;106553;1258;1011588;-71
2023/07/22 06:47:26;;;;;;;7.60;2.40;;;;;;;-128.00;-1.00;-1.00;106818;1253;1012235;-72
2023/07/22 06:50:13;;;;;;;8.00;2.30;;;;;;;-128.00;-1.00;-1.00;106682;1253;1009412;-70
2023/07/22 06:52:59;;;;;;;7.10;2.60;;;;;;;-128.00;-1.00;-1.00;106593;1253;1011344;-71
2023/07/22 06:55:50;;;;;;;6.30;2.30;;;;;;;-128.00;-1.00;-1.00;106684;1253;1012670;-70
2023/07/22 06:58:38;;;;;;;6.30;2.40;;;;;;;-128.00;-1.00;-1.00;106824;1253;1013118;-72
2023/07/22 07:01:25;;;;;;;7.10;2.50;;;;;;;-128.00;-1.00;-1.00;106747;1253;1012456;-73
2023/07/22 07:04:12;;;;;;;6.90;2.50;;;;;;;-128.00;-1.00;-1.00;106761;1252;1009476;-70
2023/07/22 07:07:02;;;;;;;6.50;2.40;;;;;;;-128.00;-1.00;-1.00;106694;1253;1010760;-72
2023/07/22 07:09:50;;;;;;;5.90;2.30;;;;;;;-128.00;-1.00;-1.00;106616;1254;1012381;-74
2023/07/22 07:12:37;;;;;;;6.10;2.30;;;;;;;-128.00;-1.00;-1.00;106382;1260;1013023;-74
2023/07/22 07:15:24;;;;;;;7.30;2.50;;;;;;;-128.00;-1.00;-1.00;106738;1254;1013142;-75
2023/07/22 07:18:12;;;;;;;7.80;2.50;;;;;;;-128.00;-1.00;-1.00;106503;1254;1009485;-73
2023/07/22 07:20:58;;;;;;;6.60;2.20;;;;;;;-128.00;-1.00;-1.00;106650;1254;1011247;-74
2023/07/22 07:23:50;;;;;;;6.40;2.40;;;;;;;-128.00;-1.00;-1.00;106567;1253;1012026;-73
2023/07/22 07:26:42;;;;;;;7.80;2.50;;;;;;;-128.00;-1.00;-1.00;106700;1254;1013384;-74
2023/07/22 07:29:30;;;;;;;7.10;2.30;;;;;;;-128.00;-1.00;-1.00;106374;1257;1013039;-74
2023/07/22 07:32:26;;;;;;;6.10;2.10;;;;;;;-128.00;-1.00;-1.00;106396;1257;1009179;-74
2023/07/22 07:35:12;;;;;;;7.40;2.70;;;;;;;-128.00;-1.00;-1.00;106379;1257;1010067;-71
2023/07/22 07:37:59;;;;;;;6.10;2.40;;;;;;;-128.00;-1.00;-1.00;106226;1257;1013870;-73
2023/07/22 07:40:46;;;;;;;5.90;2.10;;;;;;;-128.00;-1.00;-1.00;106447;1257;1012010;-73
2023/07/22 07:43:36;;;;;;;6.40;2.20;;;;;;;-128.00;-1.00;-1.00;106303;1257;1012315;-73
2023/07/22 07:46:25;;;;;;;6.20;2.30;;;;;;;-128.00;-1.00;-1.00;106332;1257;1009999;-74
2023/07/22 07:49:12;;;;;;;6.20;2.30;;;;;;;-128.00;-1.00;-1.00;106349;1257;1010515;-74
2023/07/22 07:52:03;;;;;;;6.20;2.20;;;;;;;-128.00;-1.00;-1.00;106311;1257;1013174;-72
2023/07/22 07:55:00;;;;;;;7.60;2.20;;;;;;;-128.00;-1.00;-1.00;106224;1257;1012731;-72
2023/07/22 07:57:54;;;;;;;6.20;2.10;;;;;;;-128.00;-1.00;-1.00;106323;1257;1012749;-71
2023/07/22 08:00:41;;;;;;;5.80;2.30;;;;;;;-128.00;-1.00;-1.00;106295;1254;1010066;-72
2023/07/22 08:03:27;;;;;;;6.70;2.20;;;;;;;-128.00;-1.00;-1.00;106480;1254;1011143;-73
2023/07/22 08:06:13;;;;;;;7.20;2.40;;;;;;;-128.00;-1.00;-1.00;106747;1253;1013526;-72
2023/07/22 08:09:02;;;;;;;7.30;2.50;;;;;;;-128.00;-1.00;-1.00;106550;1256;1012076;-74
2023/07/22 08:11:49;;;;;;;6.60;2.40;;;;;;;-128.00;-1.00;-1.00;106720;1252;1012540;-74
2023/07/22 08:14:35;;;;;;;7.60;3.00;;;;;;;-128.00;-1.00;-1.00;106622;1253;1009799;-72
2023/07/22 08:17:25;;;;;;;7.20;2.60;;;;;;;-128.00;-1.00;-1.00;106818;1252;1010625;-72
2023/07/22 08:20:11;;;;;;;6.90;2.70;;;;;;;-128.00;-1.00;-1.00;106795;1253;1012523;-71
2023/07/22 08:22:58;;;;;;;6.50;2.50;;;;;;;-128.00;-1.00;-1.00;106653;1253;1012327;-72
2023/07/22 08:25:45;;;;;;;7.00;2.60;;;;;;;-128.00;-1.00;-1.00;106689;1253;1013464;-74
2023/07/22 08:28:32;;;;;;;7.70;2.80;;;;;;;-128.00;-1.00;-1.00;106850;1253;1009413;-73
2023/07/22 08:31:19;;;;;;;8.00;2.60;;;;;;;-128.00;-1.00;-1.00;106734;1253;1010692;-71
2023/07/22 08:34:05;;;;;;;6.70;2.50;;;;;;;-128.00;-1.00;-1.00;106702;1252;1012980;-70
2023/07/22 08:36:55;;;;;;;7.20;2.90;;;;;;;-128.00;-1.00;-1.00;106668;1253;1012238;-74
2023/07/22 08:39:43;;;;;;;7.90;3.20;;;;;;;-128.00;-1.00;-1.00;106556;1253;1012689;-75
2023/07/22 08:42:31;;;;;;;7.00;2.70;;;;;;;-128.00;-1.00;-1.00;106549;1252;1009984;-73
2023/07/22 08:45:20;;;;;;;7.80;3.10;;;;;;;-128.00;-1.00;-1.00;106536;1253;1010736;-74
2023/07/22 08:48:09;;;;;;;7.10;3.00;;;;;;;-128.00;-1.00;-1.00;106771;1253;1013146;-71
2023/07/22 08:51:24;;;;;;;7.90;3.30;;;;;;;-128.00;-1.00;-1.00;106605;1253;1012343;-73
2023/07/22 08:54:12;;;;;;;8.20;2.90;;;;;;;-128.00;-1.00;-1.00;106682;1253;1012796;-70
2023/07/22 08:56:59;;;;;;;7.30;3.40;;;;;;;-128.00;-1.00;-1.00;106724;1253;1010425;-72
2023/07/22 08:59:46;;;;;;;9.70;3.70;;;;;;;-128.00;-1.00;-1.00;106568;1252;1010908;-72
2023/07/22 09:02:35;;;;;;;8.10;3.60;;;;;;;-128.00;-1.00;-1.00;106800;1253;1013175;-73
2023/07/22 09:05:22;;;;;;;9.30;3.90;;;;;;;-128.00;-1.00;-1.00;106770;1253;1012854;-74
2023/07/22 09:08:08;;;;;;;8.90;3.90;;;;;;;-128.00;-1.00;-1.00;106572;1253;1012321;-73
2023/07/22 09:10:56;;;;;;;9.30;5.10;;;;;;;-128.00;-1.00;-1.00;106638;1253;1009342;-73
2023/07/22 09:13:46;;;;;;;8.90;5.00;;;;;;;-128.00;-1.00;-1.00;106548;1253;1010675;-72
2023/07/22 09:16:33;;;;;;;8.60;4.10;;;;;;;-128.00;-1.00;-1.00;106518;1253;1012849;-72
2023/07/22 09:19:21;;;;;;;7.70;3.50;;;;;;;-128.00;-1.00;-1.00;106638;1253;1011617;-72
2023/07/22 09:22:08;;;;;;;7.40;3.40;;;;;;;-128.00;-1.00;-1.00;106700;1253;1012926;-71
2023/07/22 09:25:23;;;;;;;6.40;3.10;;;;;;;-128.00;-1.00;-1.00;106689;1253;1009122;-73
2023/07/22 09:28:10;;;;;;;5.70;2.20;;;;;;;-128.00;-1.00;-1.00;106611;1253;1011096;-71
2023/07/22 09:31:04;;;;;;;6.10;2.30;;;;;;;-128.00;-1.00;-1.00;106748;1253;1012742;-73
2023/07/22 09:33:55;;;;;;;5.80;2.00;;;;;;;-128.00;-1.00;-1.00;106561;1253;1013106;-73
2023/07/22 09:36:52;;;;;;;5.70;2.20;;;;;;;-128.00;-1.00;-1.00;106641;1252;1012663;-73
2023/07/22 09:39:38;;;;;;;5.90;2.20;;;;;;;-128.00;-1.00;-1.00;106602;1253;1009546;-75
2023/07/22 09:42:26;;;;;;;5.90;2.00;;;;;;;-128.00;-1.00;-1.00;106560;1252;1011083;-76
2023/07/22 09:45:12;;;;;;;5.60;1.90;;;;;;;-128.00;-1.00;-1.00;106495;1253;1012936;-73
2023/07/22 09:47:59;;;;;;;7.90;1.70;;;;;;;-128.00;-1.00;-1.00;106683;1256;1012568;-77
2023/07/22 09:50:56;;;;;;;5.80;1.50;;;;;;;-128.00;-1.00;-1.00;106556;1253;1013575;-75
2023/07/22 09:53:49;;;;;;;5.90;1.60;;;;;;;-128.00;-1.00;-1.00;106578;1253;1010018;-75
2023/07/22 09:56:50;;;;;;;6.00;1.50;;;;;;;-128.00;-1.00;-1.00;106714;1253;1011652;-74
2023/07/22 09:59:37;;;;;;;5.00;1.20;;;;;;;-128.00;-1.00;-1.00;106536;1253;1012943;-73
2023/07/22 10:02:24;;;;;;;4.90;1.30;;;;;;;-128.00;-1.00;-1.00;106703;1252;1012104;-75
2023/07/22 10:05:18;;;;;;;4.60;1.10;;;;;;;-128.00;-1.00;-1.00;106524;1253;1012793;-74
2023/07/22 10:08:06;;;;;;;4.80;1.30;;;;;;;-128.00;-1.00;-1.00;106572;1253;1009141;-74
2023/07/22 10:10:57;;;;;;;5.80;1.00;;;;;;;-128.00;-1.00;-1.00;106475;1253;1010780;-74
2023/07/22 10:13:45;;;;;;;5.10;1.10;;;;;;;-128.00;-1.00;-1.00;106448;1254;1012972;-73
2023/07/22 10:16:35;;;;;;;5.00;1.20;;;;;;;-128.00;-1.00;-1.00;106479;1254;1013473;-74
2023/07/22 10:19:25;;;;;;;4.90;1.10;;;;;;;-128.00;-1.00;-1.00;106341;1256;1013010;-73
2023/07/22 10:22:12;;;;;;;4.70;1.10;;;;;;;-128.00;-1.00;-1.00;106390;1256;1009731;-74
2023/07/22 10:25:01;;;;;;;4.60;1.10;;;;;;;-128.00;-1.00;-1.00;106358;1256;1010143;-76
2023/07/22 10:27:49;;;;;;;4.90;1.10;;;;;;;-128.00;-1.00;-1.00;106252;1259;1013157;-75
2023/07/22 10:30:36;;;;;;;4.80;1.00;;;;;;;-128.00;-1.00;-1.00;106210;1261;1011816;-74
2023/07/22 10:33:24;;;;;;;5.10;1.20;;;;;;;-128.00;-1.00;-1.00;106250;1259;1012984;-73
2023/07/22 10:36:18;;;;;;;5.30;1.20;;;;;;;-128.00;-1.00;-1.00;106264;1259;1009657;-75
2023/07/22 10:39:04;;;;;;;4.80;1.20;;;;;;;-128.00;-1.00;-1.00;106189;1259;1010186;-72
2023/07/22 10:42:04;;;;;;;4.70;1.10;;;;;;;-128.00;-1.00;-1.00;106151;1259;1012097;-75
2023/07/22 10:44:50;;;;;;;4.90;1.00;;;;;;;-128.00;-1.00;-1.00;106206;1262;1012393;-73
2023/07/22 10:48:01;;;;;;;5.60;1.40;;;;;;;-128.00;-1.00;-1.00;106305;1259;1013347;-71
2023/07/22 10:50:52;;;;;;;6.00;1.30;;;;;;;-128.00;-1.00;-1.00;106276;1257;1009140;-73
2023/07/22 10:53:48;;;;;;;8.20;1.60;;;;;;;-128.00;-1.00;-1.00;106348;1257;1010473;-74
2023/07/22 10:56:36;;;;;;;5.70;1.20;;;;;;;-128.00;-1.00;-1.00;106296;1257;1013058;-74
2023/07/22 10:59:27;;;;;;;6.70;1.40;;;;;;;-128.00;-1.00;-1.00;106625;1253;1012004;-75
2023/07/22 11:02:28;;;;;;;4.80;1.10;;;;;;;-128.00;-1.00;-1.00;106634;1256;1012733;-74
2023/07/22 11:05:18;;;;;;;5.40;1.40;;;;;;;-128.00;-1.00;-1.00;106535;1253;1009811;-73
2023/07/22 11:08:05;;;;;;;6.00;1.20;;;;;;;-128.00;-1.00;-1.00;106459;1253;1011209;-74
2023/07/22 11:10:54;;;;;;;7.20;1.10;;;;;;;-128.00;-1.00;-1.00;106679;1254;1012772;-70
2023/07/22 11:13:43;;;;;;;4.60;1.10;;;;;;;-128.00;-1.00;-1.00;106689;1256;1012203;-75
2023/07/22 11:16:30;;;;;;;5.40;1.30;;;;;;;-128.00;-1.00;-1.00;106604;1253;1013530;-74
2023/07/22 11:19:20;;;;;;;5.00;1.30;;;;;;;-128.00;-1.00;-1.00;106442;1253;1009019;-72
2023/07/22 11:22:08;;;;;;;4.60;1.20;;;;;;;-128.00;-1.00;-1.00;106707;1253;1011366;-74
2023/07/22 11:24:56;;;;;;;4.60;1.10;;;;;;;-128.00;-1.00;-1.00;106568;1253;1011988;-73
2023/07/22 11:27:43;;;;;;;3.90;0.90;;;;;;;-128.00;-1.00;-1.00;106608;1253;1012513;-71
2023/07/22 11:30:32;;;;;;;4.80;1.00;;;;;;;-128.00;-1.00;-1.00;106525;1253;1012464;-74
2023/07/22 11:33:19;;;;;;;5.80;1.50;;;;;;;-128.00;-1.00;-1.00;106646;1253;1011197;-73
2023/07/22 11:36:06;;;;;;;5.10;1.10;;;;;;;-128.00;-1.00;-1.00;106576;1253;1011009;-73
2023/07/22 11:39:00;;;;;;;4.90;1.10;;;;;;;-128.00;-1.00;-1.00;106520;1253;1013834;-72
2023/07/22 11:41:48;;;;;;;6.80;1.20;;;;;;;-128.00;-1.00;-1.00;106510;1253;1012823;-70
2023/07/22 11:44:36;;;;;;;5.30;1.20;;;;;;;-128.00;-1.00;-1.00;106689;1253;1012271;-74
2023/07/22 11:47:32;;;;;;;6.20;2.40;;;;;;;-128.00;-1.00;-1.00;106679;1253;1009870;-74
2023/07/22 11:50:32;;;;;;;7.10;1.60;;;;;;;-128.00;-1.00;-1.00;106517;1252;1011619;-72
2023/07/22 11:53:19;;;;;;;8.80;1.60;;;;;;;-128.00;-1.00;-1.00;106665;1253;1012182;-70
2023/07/22 11:56:05;;;;;;;4.60;1.10;;;;;;;-128.00;-1.00;-1.00;106617;1254;1012853;-70
2023/07/22 11:58:56;;;;;;;4.60;1.10;;;;;;;-128.00;-1.00;-1.00;106552;1254;1012310;-73
2023/07/22 12:01:46;;;;;;;5.10;1.30;;;;;;;-128.00;-1.00;-1.00;106648;1253;1009222;-70
2023/07/22 12:04:36;;;;;;;6.30;1.30;;;;;;;-128.00;-1.00;-1.00;106603;1253;1011367;-69
2023/07/22 12:07:37;;;;;;;6.00;1.40;;;;;;;-128.00;-1.00;-1.00;106798;1253;1012447;-71
2023/07/22 12:10:24;;;;;;;5.30;1.30;;;;;;;-128.00;-1.00;-1.00;106633;1256;1011890;-73
2023/07/22 12:13:10;;;;;;;6.50;1.50;;;;;;;-128.00;-1.00;-1.00;106462;1253;1013068;-71
2023/07/22 12:16:05;;;;;;;6.10;1.30;;;;;;;-128.00;-1.00;-1.00;106681;1252;1010194;-71
2023/07/22 12:18:56;;;;;;;6.40;1.60;;;;;;;-128.00;-1.00;-1.00;106550;1253;1011604;-71
2023/07/22 12:21:42;;;;;;;6.10;1.80;;;;;;;-128.00;-1.00;-1.00;106480;1253;1013145;-70
2023/07/22 12:24:30;;;;;;;7.40;1.80;;;;;;;-128.00;-1.00;-1.00;106817;1253;1012418;-72
2023/07/22 12:27:16;;;;;;;6.60;2.00;;;;;;;-128.00;-1.00;-1.00;106502;1253;1012353;-70
2023/07/22 12:30:03;;;;;;;6.80;2.40;;;;;;;-128.00;-1.00;-1.00;106533;1253;1009467;-71
2023/07/22 12:32:50;;;;;;;7.20;3.00;;;;;;;-128.00;-1.00;-1.00;106570;1253;1011264;-72
2023/07/22 12:35:36;;;;;;;7.50;2.70;;;;;;;-128.00;-1.00;-1.00;106614;1253;1013767;-72
2023/07/22 12:38:24;;;;;;;8.10;2.50;;;;;;;-128.00;-1.00;-1.00;106488;1253;1012381;-72
2023/07/22 12:41:10;;;;;;;7.10;2.50;;;;;;;-128.00;-1.00;-1.00;106617;1253;1012854;-72
2023/07/22 12:43:59;;;;;;;7.90;2.70;;;;;;;-128.00;-1.00;-1.00;106691;1253;1010143;-73
2023/07/22 12:46:47;;;;;;;6.60;2.50;;;;;;;-128.00;-1.00;-1.00;106660;1253;1011280;-73
2023/07/22 12:49:35;;;;;;;6.80;2.60;;;;;;;-128.00;-1.00;-1.00;106662;1254;1012325;-72
2023/07/22 12:52:29;;;;;;;6.30;2.60;;;;;;;-128.00;-1.00;-1.00;106512;1258;1012377;-74
2023/07/22 12:55:18;;;;;;;7.30;2.80;;;;;;;-128.00;-1.00;-1.00;106701;1253;1012705;-73